Nearby METAR Reports

 

CWGT - Sisters Island (Auto)
Distance from station: NE 39km
Updated: 2019-06-19 03:00

 Wind from NW
Wind: NW 46 km/h, Gust: 56 km/h
Temperature: 14°C
Dew Point: 7°C
Humidity: 63%
2019/06/19 10:00 CWGT 191000Z AUTO 31025G30KT 14/07 RMK AO1 PK WND 31031/0901 SLP204 T01390072 52004
CWGB - Ballenas Island (Auto)
Distance from station: ENE 47km
Updated: 2019-06-19 03:00

 Wind from WNW
Wind: WNW 48 km/h
Temperature: 15°C
Dew Point: 9°C
Humidity: 68%
2019/06/19 10:00 CWGB 191000Z AUTO 29026KT 15/09 RMK AO1 PK WND 29034/0909 SLP200 T01470090 51001
CYQQ - CFB Comox
Distance from station: N 55km
Updated: 2019-06-19 03:00
Mostly cloudy
Mostly cloudy
 Wind from NW
Wind: NW 22 km/h, Gust: 31 km/h
Temperature: 13°C
Dew Point: 4°C
Humidity: 55%
Barometer: 1021.3 hPa
Clouds: Mostly cloudy
Visibility: 32 km
Cloud details: Mostly cloudy 2134 m
2019/06/19 10:00 CYQQ 191000Z 32012G17KT 20SM BKN070 13/04 A3016 RMK AC5 SLP213
 
CYPW - Powell River Airport
Distance from station: NNE 69km
Updated: 2019-06-18 19:00
NOT Current
Mostly cloudy
Mostly cloudy
 Wind from WNW
Wind: WNW 24 km/h, Gust: 39 km/h
Temperature: 20°C
Dew Point: 7°C
Humidity: 43%
Barometer: 1020 hPa
Clouds: Mostly cloudy
Visibility: 48 km
Cloud details: Few Clouds 1676 m
Mostly cloudy 2042 m
Mostly cloudy 6706 m
2019/06/19 02:00 CYPW 190200Z 29013G21KT 30SM FEW055 BKN067 BKN220 20/07 A3012 RMK CU1AC5CI1 CU TR LAST STFD OBS NEXT OBS 191300UTC SLP202 DENSITY ALT 900FT
CYCD - Nanaimo Airport
Distance from station: ESE 70km
Updated: 2019-06-18 21:00
NOT Current
Mostly cloudy
Mostly cloudy
 Wind from varies
Wind: varies 4 km/h
Temperature: 19°C
Dew Point: 11°C
Humidity: 60%
Barometer: 1019.6 hPa
Clouds: Mostly cloudy
Visibility: 48 km
Cloud details: Mostly cloudy 1676 m
Mostly cloudy 2438 m
2019/06/19 04:00 CYCD 190400Z VRB02KT 30SM BKN055 BKN080 19/11 A3011 RMK SC6AC1 LAST STFD OBS/NEXT 191300Z SLP197 DENSITY ALT 400FT
CYAZ - Tofino Airport
Distance from station: WSW 73km
Updated: 2019-06-18 18:00
NOT Current
Clear
Clear
 Wind from WNW
Wind: WNW 39 km/h, Gust: 50 km/h
Temperature: 15°C
Dew Point: 9°C
Humidity: 68%
Barometer: 1022.7 hPa
Clouds: Clear
Visibility: 24 km
2019/06/19 01:00 CYAZ 190100Z 29021G27KT 15SM SKC 15/09 A3020 RMK LAST STFD OBS/NEXT 201300 UTC SLP229
 
CWEL - Entrance Island (Auto)
Distance from station: E 73km
Updated: 2019-06-19 03:00

 Wind from NNW
Wind: NNW 59 km/h, Gust: 69 km/h
Temperature: 16°C
Dew Point: 10°C
Humidity: 68%
2019/06/19 10:00 CWEL 191000Z AUTO 33032G37KT 16/10 RMK AO1 PK WND 33037/0946 SLP196 T01590098 58001
CYBL - Campbell River Airport
Distance from station: NNW 88km
Updated: 2019-06-18 21:00
NOT Current
Few Clouds
Few Clouds
 Wind from N
Wind: N 9 km/h
Temperature: 16°C
Dew Point: 5°C
Humidity: 48%
Barometer: 1020.7 hPa
Clouds: Few Clouds
Visibility: 48 km
Cloud details: Few Clouds 2134 m
2019/06/19 04:00 CYBL 190400Z 35005KT 30SM FEW070 16/05 A3014 RMK AC2 LAST STFD OBS/NEXT 191300 UTC SLP210 DENSITY ALT 400FT
CWKH - Malahat Highway (Auto)
Distance from station: SE 116km
Updated: 2019-06-19 03:00

 
Temperature: 10°C
Dew Point: 5°C
Humidity: 71%
2019/06/19 10:00 CWKH 191000Z AUTO 10/05 RMK AO1 SLP195 T00960046 53001
 
CYVR - Vancouver Intl Airport
Distance from station: E 118km
Updated: 2019-06-19 03:00
Mostly cloudy
Mostly cloudy
 Wind from WNW
Wind: WNW 37 km/h
Temperature: 15°C
Dew Point: 9°C
Humidity: 68%
Barometer: 1019.6 hPa
Clouds: Mostly cloudy
Visibility: 32 km
Cloud details: Few Clouds 884 m
Mostly cloudy 1829 m
Mostly cloudy 2286 m
Mostly cloudy 3048 m
2019/06/19 10:00 CYVR 191000Z 29020KT 270V010 20SM FEW029 BKN060 BKN075 BKN100 15/09 A3011 RMK SC2SC3AC1AC1 SLP197
CYYJ - Victoria Intl Airport
Distance from station: ESE 120km
Updated: 2019-06-19 03:00
Few Clouds
Few Clouds
 Wind from W
Wind: W 11 km/h
Temperature: 12°C
Dew Point: 6°C
Humidity: 67%
Barometer: 1020.7 hPa
Clouds: Few Clouds
Visibility: 32 km
Cloud details: Few Clouds 1676 m
Few Clouds 7620 m
2019/06/19 10:00 CYYJ 191000Z 27006KT 20SM FEW055 FEW250 12/06 A3014 RMK SC1CI1 SLP209
CWEB - Estevan Pt. (Auto)
Distance from station: W 129km
Updated: 2019-06-19 03:00

 Wind from NNW
Wind: NNW 35 km/h
Temperature: 11°C
Dew Point: 10°C
Humidity: 94%
2019/06/19 10:00 CWEB 191000Z AUTO 33019KT 11/10 RMK AO1 PK WND 32027/0906 SLP240 T01090097 55000
 
CWQK - Race Rocks (Auto)
Distance from station: SE 138km
Updated: 2019-06-19 03:00

 Wind from W
Wind: W 56 km/h
Temperature: 12°C
Dew Point: 8°C
Humidity: 77%
2019/06/19 10:00 CWQK 191000Z AUTO 26030KT 12/08 RMK AO1 PK WND 26038/0923 SLP211 T01170075 53002
CWAE - Whistler
Distance from station: NE 167km
Updated: 2019-06-18 18:00
NOT Current
Partly cloudy
Partly cloudy
 Wind from S
Wind: S 4 km/h
Temperature: 20°C
Dew Point: 3°C
Humidity: 33%
Barometer: 1018.3 hPa
Clouds: Partly cloudy
Visibility: 24 km
Cloud details: Few Clouds 2134 m
Partly cloudy 6401 m
2019/06/19 01:00 CWAE 190100Z 18002KT 15SM FEW070 SCT210 20/03 A3007 RMK AC2CI2 LAST OBS/NEXT 191300UTC WND ESTD SLP177 DENSITY ALT 3100FT
CYZT - Port Hardy Airport
Distance from station: NW 244km
Updated: 2019-06-19 03:10
Mostly cloudy
Mostly cloudy
 Wind from SW
Wind: SW 7 km/h
Temperature: 10°C
Wind Chill: 9°C
Dew Point: 8°C
Humidity: 88%
Barometer: 1023.7 hPa
Clouds: Mostly cloudy
Visibility: 24 km
Cloud details: Few Clouds 914 m
Partly cloudy 1341 m
Mostly cloudy 2316 m
2019/06/19 10:10 CYZT 191010Z 22004KT 15SM FEW030 SCT044 BKN076 10/08 A3023 RMK CU2SC2AC2 SLP239
 
CWRU - Solander Isl (Auto)
Distance from station: WNW 247km
Updated: 2019-06-19 03:00

 Wind from WNW
Wind: WNW 41 km/h, Gust: 54 km/h
Temperature: 11°C
Dew Point: 9°C
Humidity: 88%
2019/06/19 10:00 CWRU 191000Z AUTO 29022G29KT 11/09 RMK AO1 8015 PK WND 30029/0959 SLP236 T01090091 50002